createdAt,value
2023-01-29T00:20:47.583Z,13.68
2023-01-29T00:23:15.963Z,13.50
2023-01-29T00:25:44.068Z,15.83
2023-01-29T00:28:12.539Z,20.33
2023-01-29T00:30:40.687Z,21.30
2023-01-29T00:33:08.585Z,19.98
2023-01-29T00:35:41.416Z,15.23
2023-01-29T00:38:09.457Z,15.17
2023-01-29T00:41:00.056Z,16.77
2023-01-29T00:43:46.465Z,19.08
2023-01-29T00:46:14.579Z,18.15
2023-01-29T00:48:42.550Z,16.17
2023-01-29T00:51:11.454Z,14.67
2023-01-29T00:53:39.635Z,14.45
2023-01-29T00:56:08.007Z,15.18
2023-01-29T00:58:36.225Z,13.55
2023-01-29T01:01:04.753Z,14.15
2023-01-29T01:03:35.637Z,12.83
2023-01-29T01:06:10.662Z,14.98
2023-01-29T01:08:58.284Z,15.45
2023-01-29T01:11:26.766Z,11.40
2023-01-29T01:13:55.520Z,10.93
2023-01-29T01:16:26.023Z,9.73
2023-01-29T01:18:53.955Z,10.50
2023-01-29T01:21:21.969Z,10.77
2023-01-29T01:23:52.395Z,10.73
2023-01-29T01:26:20.436Z,10.40
2023-01-29T01:28:48.509Z,10.60
2023-01-29T01:31:16.774Z,10.80
2023-01-29T01:33:44.616Z,11.93
2023-01-29T01:36:14.353Z,19.45
2023-01-29T01:38:45.595Z,19.30
2023-01-29T01:41:20.800Z,20.23
2023-01-29T01:44:00.860Z,18.17
2023-01-29T01:46:34.318Z,11.80
2023-01-29T01:49:10.512Z,11.55
2023-01-29T01:51:43.173Z,10.27
2023-01-29T01:54:14.884Z,26.20
2023-01-29T01:56:49.050Z,27.67
2023-01-29T01:59:19.618Z,29.45
2023-01-29T02:01:51.603Z,31.20
2023-01-29T02:04:41.822Z,27.98
2023-01-29T02:07:31.955Z,22.67
2023-01-29T02:10:15.028Z,21.52
2023-01-29T02:12:44.550Z,26.13
2023-01-29T02:15:13.270Z,35.67
2023-01-29T02:17:41.384Z,38.03
2023-01-29T02:20:24.642Z,22.87
2023-01-29T02:23:00.073Z,13.80
2023-01-29T02:25:47.778Z,33.67
2023-01-29T02:29:34.193Z,19.05
2023-01-29T02:32:24.089Z,12.75
2023-01-29T02:35:19.570Z,19.60
2023-01-29T02:38:19.446Z,12.77
2023-01-29T02:41:07.808Z,11.93
2023-01-29T02:43:50.796Z,10.95
2023-01-29T02:46:41.756Z,11.95
2023-01-29T02:49:18.405Z,11.23
2023-01-29T02:51:59.997Z,11.48
2023-01-29T02:55:09.579Z,10.18
2023-01-29T02:57:42.753Z,12.40
2023-01-29T03:00:19.799Z,10.07
2023-01-29T03:03:11.553Z,8.55
2023-01-29T03:05:53.755Z,10.07
2023-01-29T03:08:43.637Z,9.20
2023-01-29T03:11:14.334Z,8.68
2023-01-29T03:14:06.128Z,10.30
2023-01-29T03:16:45.316Z,10.10
2023-01-29T03:19:17.702Z,10.13
2023-01-29T03:21:59.667Z,10.03
2023-01-29T03:24:58.766Z,10.48
2023-01-29T03:27:52.338Z,11.35
2023-01-29T03:30:41.616Z,11.60
2023-01-29T03:33:58.750Z,11.55
2023-01-29T03:36:45.765Z,12.13
2023-01-29T03:39:16.971Z,11.57
2023-01-29T03:41:56.469Z,11.95
2023-01-29T03:44:25.313Z,11.95
2023-01-29T03:46:59.045Z,12.00
2023-01-29T03:50:08.443Z,12.83
2023-01-29T03:52:43.948Z,11.25
2023-01-29T03:55:21.722Z,12.48
2023-01-29T03:58:00.609Z,11.57
2023-01-29T04:00:34.984Z,10.85
2023-01-29T04:07:35.135Z,8.15
2023-01-29T07:16:35.427Z,12.38
2023-01-29T07:19:03.820Z,12.75
2023-01-29T07:21:31.558Z,12.30
2023-01-29T07:23:59.794Z,13.75
2023-01-29T07:26:27.825Z,13.32
2023-01-29T07:28:55.971Z,13.68
2023-01-29T07:31:23.811Z,14.90
2023-01-29T07:33:51.532Z,13.47
2023-01-29T07:36:19.981Z,12.45
2023-01-29T08:37:33.511Z,16.57
2023-01-29T08:40:01.413Z,17.90
2023-01-29T08:42:29.556Z,17.90
2023-01-29T08:44:57.592Z,17.35
2023-01-29T08:47:26.600Z,17.17
2023-01-29T08:49:55.336Z,17.60
2023-01-29T08:52:23.362Z,17.77
2023-01-29T09:35:29.807Z,13.50
2023-01-29T09:37:58.000Z,13.50
2023-01-29T09:40:38.210Z,13.40
2023-01-29T09:43:21.030Z,13.50
2023-01-29T09:46:13.937Z,11.50
2023-01-29T09:48:43.529Z,15.45
2023-01-29T09:51:41.290Z,16.60
2023-01-29T09:54:22.244Z,14.85
2023-01-29T09:56:55.631Z,19.35
2023-01-29T09:59:27.249Z,12.17
2023-01-29T10:01:58.063Z,13.98
2023-01-29T10:04:57.275Z,12.45
2023-01-29T10:07:53.269Z,12.27
2023-01-29T10:10:31.257Z,11.80
2023-01-29T10:13:02.348Z,11.67
2023-01-29T10:15:33.023Z,13.88
2023-01-29T10:18:21.195Z,13.20
2023-01-29T10:21:07.818Z,12.68
2023-01-29T10:23:59.278Z,11.75
2023-01-29T10:26:30.211Z,11.30
2023-01-29T10:29:00.735Z,23.00
2023-01-29T10:31:33.655Z,14.43
2023-01-29T10:35:17.766Z,11.75
2023-01-29T10:37:46.158Z,13.60
2023-01-29T10:40:30.883Z,12.63
2023-01-29T10:43:09.324Z,12.90
2023-01-29T10:46:01.162Z,11.98
2023-01-29T10:48:31.747Z,11.85
2023-01-29T10:51:15.069Z,11.98
2023-01-29T10:53:54.207Z,12.50
2023-01-29T10:56:33.692Z,12.02
2023-01-29T10:59:27.492Z,12.07
2023-01-29T11:02:00.592Z,11.80
2023-01-29T11:04:29.169Z,12.23
2023-01-29T11:06:57.531Z,25.23
2023-01-29T11:09:25.109Z,15.98
2023-01-29T11:11:59.952Z,12.77
2023-01-29T11:14:54.261Z,13.75
2023-01-29T11:17:25.164Z,32.05
2023-01-29T11:19:57.793Z,29.77
2023-01-29T11:41:47.372Z,9.60
2023-01-29T11:44:28.247Z,10.32
2023-01-29T11:47:09.535Z,11.68
2023-01-29T11:49:41.262Z,11.55
2023-01-29T11:52:59.923Z,11.15
2023-01-29T11:55:49.330Z,12.20
2023-01-29T11:58:30.700Z,11.70
2023-01-29T12:01:00.385Z,14.38
2023-01-29T12:03:59.310Z,36.67
2023-01-29T12:25:20.746Z,47.22
2023-01-29T12:28:01.078Z,64.75
2023-01-29T12:30:40.830Z,52.27
2023-01-29T12:33:50.923Z,16.38
2023-01-29T12:36:36.889Z,13.40
2023-01-29T12:39:05.923Z,13.95
2023-01-29T12:41:48.697Z,13.20
2023-01-29T12:44:21.900Z,15.80
2023-01-29T12:46:59.480Z,14.63
2023-01-29T12:49:33.328Z,13.75
2023-01-29T12:52:07.320Z,15.13
2023-01-29T12:54:55.257Z,12.95
2023-01-29T12:58:04.613Z,12.50
2023-01-29T13:00:36.071Z,17.80
2023-01-29T13:03:13.194Z,16.38
2023-01-29T13:06:12.530Z,32.50
2023-01-29T13:08:46.236Z,16.52
2023-01-29T13:11:22.858Z,19.00
2023-01-29T13:13:56.927Z,17.13
2023-01-29T13:16:34.034Z,12.90
2023-01-29T13:19:15.727Z,14.45
2023-01-29T13:21:45.155Z,15.95
2023-01-29T13:24:19.074Z,15.40
2023-01-29T13:26:49.290Z,14.27
2023-01-29T13:29:29.295Z,14.00
2023-01-29T13:32:00.448Z,13.95
2023-01-29T13:34:35.909Z,14.18
2023-01-29T13:37:28.598Z,14.17
2023-01-29T13:39:58.841Z,11.68
2023-01-29T13:42:42.581Z,12.27
2023-01-29T13:45:23.217Z,12.82
2023-01-29T13:47:53.316Z,12.05
2023-01-29T13:50:36.843Z,13.87
2023-01-29T13:53:08.667Z,12.95
2023-01-29T13:55:38.919Z,15.38
2023-01-29T13:58:17.712Z,13.20
2023-01-29T14:00:49.417Z,13.95
2023-01-29T14:03:17.771Z,17.87
2023-01-29T14:06:05.973Z,17.58
2023-01-29T14:08:42.211Z,13.52
2023-01-29T14:11:16.238Z,14.02
2023-01-29T14:13:53.453Z,12.63
2023-01-29T14:16:22.725Z,11.73
2023-01-29T14:19:01.823Z,11.57
2023-01-29T14:21:36.711Z,12.77
2023-01-29T14:24:28.476Z,13.48
2023-01-29T14:26:56.972Z,12.38
2023-01-29T14:29:34.780Z,12.10
2023-01-29T14:32:16.117Z,13.88
2023-01-29T14:34:52.946Z,19.83
2023-01-29T14:37:30.474Z,16.08
2023-01-29T14:40:06.575Z,15.15
2023-01-29T14:43:04.049Z,12.80
2023-01-29T14:45:34.233Z,11.55
2023-01-29T14:48:11.299Z,11.35
2023-01-29T14:50:43.917Z,11.02
2023-01-29T14:53:30.255Z,12.55
2023-01-29T14:56:23.548Z,11.10
2023-01-29T14:59:05.192Z,10.60
2023-01-29T15:01:38.302Z,12.75
2023-01-29T15:04:08.112Z,12.05
2023-01-29T15:06:50.207Z,13.45
2023-01-29T15:09:41.808Z,10.67
2023-01-29T15:12:23.677Z,12.95
2023-01-29T15:15:20.215Z,9.68
2023-01-29T15:18:13.560Z,14.20
2023-01-29T15:20:47.929Z,11.60
2023-01-29T15:23:33.677Z,10.37
2023-01-29T15:26:16.463Z,14.60
2023-01-29T15:28:54.834Z,13.90
2023-01-29T15:31:28.115Z,11.80
2023-01-29T15:33:57.254Z,10.73
2023-01-29T15:36:28.803Z,10.87
2023-01-29T15:39:15.177Z,15.00
2023-01-29T15:41:44.433Z,14.95
2023-01-29T15:44:21.824Z,11.57
2023-01-29T15:46:56.917Z,10.30
2023-01-29T15:49:37.845Z,12.27
2023-01-29T15:52:16.568Z,14.93
2023-01-29T15:54:45.160Z,52.13
2023-01-29T15:57:25.475Z,12.93
2023-01-29T15:59:56.650Z,11.00
2023-01-29T16:02:35.155Z,13.47
2023-01-29T16:05:10.586Z,13.55
2023-01-29T16:07:38.620Z,13.00
2023-01-29T16:10:08.115Z,15.57
2023-01-29T16:12:36.304Z,19.42
2023-01-29T16:15:05.620Z,19.23
2023-01-29T16:17:37.858Z,11.43
2023-01-29T16:20:08.582Z,13.35
2023-01-29T16:22:38.174Z,9.05
2023-01-29T16:25:13.426Z,8.70
2023-01-29T16:27:44.085Z,7.70
2023-01-29T16:30:17.677Z,27.52
2023-01-29T16:32:45.645Z,7.88
2023-01-29T16:35:17.601Z,8.95
2023-01-29T16:37:51.199Z,8.77
2023-01-29T16:40:56.301Z,8.20
2023-01-29T16:43:28.441Z,7.97
2023-01-29T16:46:04.164Z,10.57
2023-01-29T16:48:34.669Z,7.95
2023-01-29T16:51:06.783Z,17.83
2023-01-29T16:53:36.288Z,9.40
2023-01-29T16:56:07.526Z,12.18
2023-01-29T16:58:36.067Z,8.40
2023-01-29T17:01:11.926Z,11.00
2023-01-29T17:03:40.811Z,8.27
2023-01-29T17:06:19.420Z,7.53
2023-01-29T17:08:47.840Z,8.82
2023-01-29T17:11:32.492Z,9.15
2023-01-29T17:14:01.051Z,8.60
2023-01-29T17:16:32.846Z,11.20
2023-01-29T17:19:01.276Z,13.87
2023-01-29T17:21:31.134Z,7.72
2023-01-29T17:23:59.252Z,14.32
2023-01-29T17:26:27.763Z,15.82
2023-01-29T17:28:55.704Z,10.52
2023-01-29T17:31:24.117Z,12.60
2023-01-29T17:33:52.199Z,9.13
2023-01-29T17:36:20.420Z,8.32
2023-01-29T17:39:16.752Z,8.98
2023-01-29T17:41:52.329Z,8.63
2023-01-29T17:44:29.311Z,9.67
2023-01-29T17:46:58.161Z,10.02
2023-01-29T17:49:30.551Z,7.90
2023-01-29T17:51:58.965Z,8.38
2023-01-29T17:54:26.654Z,8.93
2023-01-29T17:56:54.818Z,9.10
2023-01-29T17:59:24.872Z,9.25
2023-01-29T18:01:53.533Z,8.20
2023-01-29T18:04:21.662Z,10.15
2023-01-29T18:06:51.853Z,8.63
2023-01-29T18:09:21.035Z,12.30
2023-01-29T18:11:50.659Z,9.45
2023-01-29T18:14:18.944Z,9.68
2023-01-29T18:16:47.491Z,11.95
2023-01-29T18:19:21.594Z,19.92
2023-01-29T18:21:51.030Z,18.60
2023-01-29T18:24:20.787Z,8.82
2023-01-29T18:26:50.129Z,9.25
2023-01-29T18:29:17.921Z,10.23
2023-01-29T18:31:49.547Z,9.43
2023-01-29T18:34:17.639Z,8.90
2023-01-29T18:36:48.091Z,8.32
2023-01-29T18:39:16.408Z,8.10
2023-01-29T18:41:44.746Z,7.90
2023-01-29T18:44:12.571Z,9.52
2023-01-29T18:46:40.867Z,9.33
2023-01-29T18:49:09.119Z,21.08
2023-01-29T18:51:37.226Z,8.93
2023-01-29T18:54:05.377Z,19.33
2023-01-29T18:56:33.489Z,10.52
2023-01-29T18:59:01.448Z,8.57
2023-01-29T19:01:30.695Z,10.68
2023-01-29T19:04:00.913Z,29.10
2023-01-29T19:06:29.157Z,12.73
2023-01-29T19:08:56.985Z,17.15
2023-01-29T19:11:25.156Z,12.27
2023-01-29T19:13:53.172Z,15.55
2023-01-29T19:16:21.245Z,14.48
2023-01-29T19:18:49.148Z,12.93
2023-01-29T19:21:17.438Z,11.73
2023-01-29T19:23:45.390Z,12.03
2023-01-29T19:26:13.948Z,15.20
2023-01-29T19:28:42.517Z,7.90
2023-01-29T19:31:11.337Z,12.15
2023-01-29T19:33:39.749Z,13.52
2023-01-29T19:36:08.100Z,10.67
2023-01-29T19:38:38.949Z,8.82
2023-01-29T19:41:07.303Z,7.38
2023-01-29T19:43:35.098Z,9.88
2023-01-29T19:46:03.501Z,7.30
2023-01-29T19:48:31.379Z,7.47
2023-01-29T19:51:04.675Z,7.72
2023-01-29T19:53:32.615Z,8.00
2023-01-29T19:56:03.222Z,8.02
2023-01-29T19:58:31.740Z,9.70
2023-01-29T20:01:02.090Z,7.43
2023-01-29T20:03:30.757Z,7.15
2023-01-29T20:06:08.942Z,7.95
2023-01-29T20:08:36.911Z,7.30
2023-01-29T20:11:05.974Z,9.13
2023-01-29T20:13:34.591Z,7.23
2023-01-29T20:16:04.213Z,7.97
2023-01-29T20:18:32.462Z,7.03
2023-01-29T20:21:07.163Z,6.85
2023-01-29T20:23:38.386Z,8.10
2023-01-29T20:26:16.017Z,8.77
2023-01-29T20:28:47.924Z,8.88
2023-01-29T20:31:16.729Z,9.05
2023-01-29T20:33:44.703Z,6.32
2023-01-29T20:36:13.886Z,7.50
2023-01-29T20:38:41.938Z,6.27
2023-01-29T20:41:14.443Z,9.95
2023-01-29T20:43:43.563Z,8.63
2023-01-29T20:46:12.307Z,7.82
2023-01-29T20:48:40.491Z,7.43
2023-01-29T20:51:13.589Z,9.37
2023-01-29T20:53:43.491Z,9.05
2023-01-29T20:56:12.797Z,7.10
2023-01-29T20:58:41.584Z,7.22
2023-01-29T21:01:15.868Z,6.93
2023-01-29T21:03:44.117Z,6.60
2023-01-29T21:06:13.120Z,5.90
2023-01-29T21:08:41.434Z,7.05
2023-01-29T21:11:11.293Z,6.50
2023-01-29T21:13:39.443Z,7.38
2023-01-29T21:16:07.636Z,8.53
2023-01-29T21:18:36.618Z,14.63
2023-01-29T21:21:05.944Z,20.55
2023-01-29T21:23:33.636Z,17.25
2023-01-29T21:26:04.069Z,21.63
2023-01-29T21:28:32.108Z,22.13
2023-01-29T21:31:11.655Z,9.38
2023-01-29T21:33:39.750Z,9.90
2023-01-29T21:36:08.768Z,9.38
2023-01-29T21:38:37.021Z,9.32
2023-01-29T21:41:07.754Z,9.03
2023-01-29T21:43:36.110Z,8.07
2023-01-29T21:46:06.696Z,10.20
2023-01-29T21:48:34.540Z,9.35
2023-01-29T21:51:03.118Z,7.80
2023-01-29T21:53:30.954Z,7.90
2023-01-29T21:56:04.078Z,7.53
2023-01-29T21:58:32.444Z,9.65
2023-01-29T22:01:35.877Z,8.38
2023-01-29T22:03:48.938Z,7.10
2023-01-29T22:06:16.963Z,6.90
2023-01-29T22:08:44.992Z,6.07
2023-01-29T22:11:13.384Z,7.50
2023-01-29T22:13:41.080Z,7.15
2023-01-29T22:16:09.075Z,8.05
2023-01-29T22:18:36.841Z,8.50
2023-01-29T22:21:05.330Z,9.23
2023-01-29T22:23:33.153Z,8.90
2023-01-29T22:26:05.767Z,9.15
2023-01-29T22:28:33.651Z,8.98
2023-01-29T22:31:06.238Z,7.57
2023-01-29T22:33:34.383Z,6.65
2023-01-29T22:36:03.078Z,8.70
2023-01-29T22:38:31.536Z,8.70
2023-01-29T22:41:01.330Z,8.93
2023-01-29T22:43:29.684Z,8.67
2023-01-29T22:45:57.796Z,8.20
2023-01-29T22:48:31.700Z,8.95
2023-01-29T22:51:10.443Z,8.05
2023-01-29T22:53:40.337Z,8.52
2023-01-29T22:56:09.089Z,8.97
2023-01-29T22:58:37.797Z,9.88
2023-01-29T23:01:05.890Z,7.97
2023-01-29T23:03:34.155Z,8.75
2023-01-29T23:06:04.214Z,8.23
2023-01-29T23:08:33.960Z,7.50
2023-01-29T23:11:16.347Z,8.20
2023-01-29T23:13:55.066Z,6.63
2023-01-29T23:16:28.079Z,7.75
2023-01-29T23:18:56.838Z,7.65
2023-01-29T23:21:26.009Z,6.70
2023-01-29T23:23:56.265Z,6.05
2023-01-29T23:26:43.054Z,6.38
2023-01-29T23:29:11.207Z,7.65
2023-01-29T23:31:39.606Z,5.88
2023-01-29T23:34:07.545Z,5.93
2023-01-29T23:36:35.551Z,5.45
2023-01-29T23:39:03.518Z,6.32
2023-01-29T23:41:31.719Z,6.32
2023-01-29T23:43:59.479Z,5.72
2023-01-29T23:46:28.622Z,5.83
2023-01-29T23:48:56.637Z,5.68
2023-01-29T23:51:24.694Z,6.13
